Elko Regional Airport Elko US
ICAO: KEKO
IATA: EKO
Category: Medium
Scheduled Services: Yes

Elevation: 5140 ft
TransAlt. 18000 ft.

Airport Communications:
ASOS:119.275
SALT LAKE CNTR:132.25
CTAF:123
UNICOM:123

KEKO Zoom In..

If you have problems with the map follow the link
https://www.worldairports.se/pages/airport.php?
ICAO=KEKO

Runways:

(A) RW 05 length 7214 ft width 150 ft
---- / hdg 53

(B) RW 12 length 2871 ft width 60 ft
---- / hdg 118

(C) RW 23 length 7214 ft width 150 ft
---- / hdg 233

(D) RW 30 length 2871 ft width 60 ft
---- / hdg 298

Location; KEKO
Day. 18 / Time. 01.56 Zulu
* Altimeter: 29.85
* Temperature: -04° c. -24.8°f.
* Wind from: 110° Speed 03 kn.
Dewpoint: -07° c.
Visibility: 10 Statute Miles.
Clouds: Broken 4600 ft.
Clouds: Overcast 7000 ft.

KEKO 180156Z AUTO 11003KT 10SM BKN046 OVC070 M04/M07 A2985 RMK AO2 SNE23 SLP142 P0000 T10441072


Wind From 110°
Speed 03 kn.

 
 
jpsmedia.com for Web Design worldairports.se 2019   terms of use